Time;durP1;ratioP1;P1;durP2;ratioP2;P2;SDS_P1;SDS_P2;PMS_P1;PMS_P2;Temp;Humidity;BMP_temperature;BMP_pressure;BME280_temperature;BME280_humidity;BME280_pressure;Samples;Min_cycle;Max_cycle;Signal;HPM_P1;HPM_P2
2022/09/18 00:01:41;;;;;;;12.27;2.50;;;10.20;99.90;;;;;;5016891;28;20080;-86
2022/09/18 00:04:09;;;;;;;12.07;2.22;;;10.20;99.90;;;;;;5032427;28;20156;-85
2022/09/18 00:06:37;;;;;;;9.20;1.70;;;10.30;99.90;;;;;;5048418;28;20084;-86
2022/09/18 00:09:05;;;;;;;9.95;1.55;;;10.20;99.90;;;;;;5016116;28;20042;-87
2022/09/18 00:11:44;;;;;;;8.95;1.50;;;10.20;99.90;;;;;;5048502;28;20045;-85
2022/09/18 00:14:13;;;;;;;12.55;1.35;;;10.10;99.90;;;;;;5017004;28;20372;-86
2022/09/18 00:16:39;;;;;;;13.02;1.70;;;10.10;99.90;;;;;;5016576;28;20125;-85
2022/09/18 00:19:05;;;;;;;8.68;1.50;;;10.30;99.90;;;;;;5016425;28;20103;-85
2022/09/18 00:21:31;;;;;;;9.00;1.63;;;10.10;99.90;;;;;;5015155;28;20050;-85
2022/09/18 00:23:59;;;;;;;9.30;1.35;;;10.00;99.90;;;;;;5016588;28;20128;-85
2022/09/18 00:26:25;;;;;;;8.93;1.50;;;10.10;99.90;;;;;;5015345;28;20054;-85
2022/09/18 00:28:52;;;;;;;9.38;1.33;;;10.10;99.90;;;;;;5031715;28;20042;-86
2022/09/18 00:31:28;;;;;;;13.43;1.50;;;10.10;99.90;;;;;;5015012;28;20062;-86
2022/09/18 00:33:58;;;;;;;15.65;1.65;;;10.10;99.90;;;;;;5015954;28;20081;-86
2022/09/18 00:36:25;;;;;;;12.37;1.33;;;10.20;99.90;;;;;;5048594;28;20542;-86
2022/09/18 00:38:52;;;;;;;13.80;1.55;;;10.20;99.90;;;;;;5047887;28;20117;-85
2022/09/18 00:41:30;;;;;;;19.10;1.90;;;10.20;99.90;;;;;;5048211;28;20527;-86
2022/09/18 00:44:33;;;;;;;11.20;1.50;;;10.20;99.90;;;;;;5014942;28;20042;-85
2022/09/18 00:47:08;;;;;;;10.27;1.63;;;10.20;99.90;;;;;;5015090;28;20089;-85
2022/09/18 00:49:55;;;;;;;9.43;1.15;;;10.20;99.90;;;;;;5015952;28;20042;-85
2022/09/18 00:52:26;;;;;;;14.48;1.98;;;10.20;99.90;;;;;;4997927;28;20392;-85
2022/09/18 00:54:58;;;;;;;9.43;1.23;;;10.30;99.90;;;;;;5015709;28;20145;-85
2022/09/18 00:57:29;;;;;;;7.85;1.30;;;10.30;99.90;;;;;;5015500;28;20129;-85
2022/09/18 00:59:55;;;;;;;;;;;10.30;99.90;;;;;;5016518;28;20050;-85
2022/09/18 01:02:21;;;;;;;8.63;1.33;;;10.30;99.90;;;;;;5047861;28;19948;-85
2022/09/18 01:04:48;;;;;;;11.95;1.50;;;10.40;99.90;;;;;;5047557;28;20052;-85
2022/09/18 01:07:44;;;;;;;8.32;1.40;;;10.40;99.90;;;;;;5013985;28;20104;-85
2022/09/18 01:10:16;;;;;;;12.10;1.65;;;10.40;99.90;;;;;;5014338;28;20112;-85
2022/09/18 01:12:53;;;;;;;12.88;1.58;;;10.40;99.90;;;;;;5014221;28;20049;-85
2022/09/18 01:15:21;;;;;;;11.57;1.50;;;10.40;99.90;;;;;;5014442;28;20140;-85
2022/09/18 01:18:06;;;;;;;13.48;1.67;;;10.50;99.90;;;;;;5015029;28;20052;-86
2022/09/18 01:21:08;;;;;;;7.68;1.15;;;10.50;99.90;;;;;;5014372;28;20042;-86
2022/09/18 01:24:17;;;;;;;11.63;1.38;;;10.50;99.90;;;;;;5047375;28;20045;-86
2022/09/18 01:26:53;;;;;;;9.98;1.30;;;10.50;99.90;;;;;;5047495;28;20050;-86
2022/09/18 01:29:44;;;;;;;8.82;1.45;;;10.50;99.90;;;;;;5047221;28;20132;-86
2022/09/18 01:32:44;;;;;;;11.77;1.48;;;10.60;99.90;;;;;;4997522;28;20053;-87
2022/09/18 01:35:17;;;;;;;14.82;1.52;;;10.60;99.90;;;;;;5014128;28;20088;-86
2022/09/18 01:37:54;;;;;;;6.18;1.00;;;10.60;99.90;;;;;;5014359;28;20510;-86
2022/09/18 01:40:29;;;;;;;12.10;1.30;;;10.60;99.90;;;;;;5014803;28;20056;-86
2022/09/18 01:42:59;;;;;;;11.52;1.38;;;10.70;99.90;;;;;;5013586;28;20054;-86
2022/09/18 01:45:31;;;;;;;10.05;1.25;;;10.70;99.90;;;;;;5014817;28;20052;-86
2022/09/18 01:48:00;;;;;;;11.13;1.75;;;10.70;99.90;;;;;;5046680;28;20423;-85
2022/09/18 01:50:29;;;;;;;8.32;1.23;;;10.70;99.90;;;;;;5014595;28;20395;-86
2022/09/18 01:53:19;;;;;;;8.98;1.35;;;10.70;99.90;;;;;;5046556;28;20495;-87
2022/09/18 01:55:50;;;;;;;8.18;1.27;;;10.70;99.90;;;;;;5046976;28;20108;-86
2022/09/18 01:58:19;;;;;;;9.40;1.42;;;10.70;99.90;;;;;;5013779;28;20050;-85
2022/09/18 02:00:54;;;;;;;10.55;1.70;;;10.70;99.90;;;;;;5014566;28;20072;-85
2022/09/18 02:03:24;;;;;;;7.57;1.38;;;10.80;99.90;;;;;;5014524;28;20057;-85
2022/09/18 02:06:10;;;;;;;7.90;1.05;;;10.80;99.90;;;;;;5013105;28;20077;-85
2022/09/18 02:08:47;;;;;;;10.35;1.30;;;10.80;99.90;;;;;;4996960;28;20049;-87
2022/09/18 02:11:14;;;;;;;9.30;1.20;;;10.90;99.90;;;;;;5013109;28;20057;-85
2022/09/18 02:13:55;;;;;;;10.55;1.17;;;10.80;99.90;;;;;;5014261;28;20058;-84
2022/09/18 02:16:30;;;;;;;11.75;0.95;;;10.80;99.90;;;;;;5046246;28;20132;-85
2022/09/18 02:19:01;;;;;;;7.03;0.80;;;10.90;99.90;;;;;;5014742;28;20064;-85
2022/09/18 02:21:29;;;;;;;10.23;1.00;;;10.90;99.90;;;;;;4997334;28;20107;-87
2022/09/18 02:24:05;;;;;;;8.75;1.48;;;10.90;99.90;;;;;;5014166;28;20050;-90
2022/09/18 02:26:32;;;;;;;11.73;1.45;;;10.90;99.90;;;;;;5013918;28;20049;-88
2022/09/18 02:28:59;;;;;;;7.05;0.98;;;10.90;99.90;;;;;;5013229;28;20396;-87
2022/09/18 02:31:25;;;;;;;5.00;1.00;;;10.90;99.90;;;;;;5013986;28;20038;-87
2022/09/18 02:33:52;;;;;;;8.00;1.15;;;10.90;99.90;;;;;;5014017;28;20053;-87
2022/09/18 02:36:20;;;;;;;5.88;1.00;;;10.90;99.90;;;;;;4996985;28;20410;-86
2022/09/18 02:38:59;;;;;;;7.35;1.10;;;10.90;99.90;;;;;;5012485;28;20072;-87
2022/09/18 02:41:28;;;;;;;5.25;1.08;;;10.90;99.90;;;;;;5013891;28;20415;-86
2022/09/18 02:44:02;;;;;;;6.07;1.23;;;10.90;99.90;;;;;;5013911;28;20054;-88
2022/09/18 02:47:17;;;;;;;5.60;1.30;;;11.00;99.90;;;;;;5013057;28;20089;-86
2022/09/18 02:50:00;;;;;;;8.82;1.30;;;10.90;99.90;;;;;;5013628;28;20369;-84
2022/09/18 02:52:35;;;;;;;5.70;0.80;;;10.90;99.90;;;;;;5012756;28;20052;-86
2022/09/18 02:55:09;;;;;;;5.90;0.80;;;11.00;99.90;;;;;;5013722;28;20057;-86
2022/09/18 02:57:40;;;;;;;12.73;1.42;;;10.80;99.90;;;;;;5045509;28;20579;-84
2022/09/18 03:00:10;;;;;;;4.10;0.80;;;10.80;99.90;;;;;;5045579;28;20081;-87
2022/09/18 03:02:37;;;;;;;6.33;0.90;;;10.80;99.90;;;;;;5012660;28;20053;-86
2022/09/18 03:05:03;;;;;;;6.35;0.73;;;10.80;99.90;;;;;;5013619;28;20296;-85
2022/09/18 03:07:29;;;;;;;5.47;1.00;;;10.80;99.90;;;;;;5012056;28;20400;-85
2022/09/18 03:09:54;;;;;;;10.90;0.93;;;10.70;99.90;;;;;;5012134;28;20058;-85
2022/09/18 03:12:20;;;;;;;4.13;0.65;;;10.70;99.90;;;;;;4995920;28;20046;-86
2022/09/18 03:14:46;;;;;;;8.73;0.88;;;10.80;99.90;;;;;;4995800;28;20132;-86
2022/09/18 03:17:11;;;;;;;6.60;1.13;;;10.60;99.90;;;;;;5014026;28;20053;-86
2022/09/18 03:19:37;;;;;;;8.32;1.17;;;10.60;99.90;;;;;;5029001;28;20393;-85
2022/09/18 03:22:03;;;;;;;7.72;1.10;;;10.60;99.90;;;;;;5012284;28;20052;-84
2022/09/18 03:24:28;;;;;;;5.00;0.70;;;10.60;99.90;;;;;;5028806;28;20100;-87
2022/09/18 03:26:55;;;;;;;8.43;1.00;;;10.70;99.90;;;;;;5028938;28;20062;-86
2022/09/18 03:29:20;;;;;;;6.60;0.90;;;10.80;99.90;;;;;;5011983;28;20056;-87
2022/09/18 03:31:46;;;;;;;4.00;0.73;;;10.70;99.90;;;;;;5011939;28;20124;-86
2022/09/18 03:34:12;;;;;;;5.88;0.60;;;10.70;99.90;;;;;;5013727;28;20050;-86
2022/09/18 03:36:37;;;;;;;8.38;0.93;;;10.70;99.90;;;;;;5012433;28;20046;-85
2022/09/18 03:39:04;;;;;;;9.57;1.00;;;10.70;99.90;;;;;;5012884;28;20484;-84
2022/09/18 03:41:30;;;;;;;7.57;1.02;;;10.70;99.90;;;;;;5013100;28;20081;-86
2022/09/18 03:43:56;;;;;;;7.40;0.98;;;10.70;99.90;;;;;;5013229;28;20092;-86
2022/09/18 03:46:22;;;;;;;6.50;0.85;;;10.70;99.90;;;;;;5013363;28;20053;-86
2022/09/18 03:48:52;;;;;;;6.70;1.10;;;10.70;99.90;;;;;;5028657;28;20058;-86
2022/09/18 03:51:18;;;;;;;6.65;1.25;;;10.70;99.90;;;;;;5013088;28;20085;-85
2022/09/18 03:53:45;;;;;;;10.98;1.15;;;10.70;99.90;;;;;;5012012;28;20068;-85
2022/09/18 03:56:12;;;;;;;9.65;0.80;;;10.70;99.90;;;;;;5011913;28;20125;-85
2022/09/18 03:58:38;;;;;;;7.53;1.10;;;10.70;99.90;;;;;;5045448;28;20093;-86
2022/09/18 04:01:05;;;;;;;6.45;0.77;;;10.70;99.90;;;;;;5045074;28;20050;-85
2022/09/18 04:03:32;;;;;;;4.75;0.77;;;10.70;99.90;;;;;;5045412;28;20061;-85
2022/09/18 04:05:57;;;;;;;7.50;1.13;;;10.70;99.90;;;;;;5044832;28;20062;-85
2022/09/18 04:08:23;;;;;;;6.22;0.90;;;10.60;99.90;;;;;;5044668;28;20491;-86
2022/09/18 04:10:49;;;;;;;10.10;1.10;;;10.60;99.90;;;;;;5047371;28;20096;-85
2022/09/18 04:13:15;;;;;;;8.52;1.10;;;10.60;99.90;;;;;;5015168;28;20502;-85
2022/09/18 04:15:43;;;;;;;4.88;0.90;;;10.60;99.90;;;;;;4999331;28;20491;-86
2022/09/18 04:18:09;;;;;;;6.40;0.90;;;10.60;99.90;;;;;;5016455;28;20045;-85
2022/09/18 04:20:34;;;;;;;6.32;0.80;;;10.60;99.90;;;;;;5015219;28;20545;-85
2022/09/18 04:23:00;;;;;;;7.07;0.80;;;10.60;99.90;;;;;;5032070;28;20050;-86
2022/09/18 04:25:25;;;;;;;7.60;1.20;;;10.60;99.90;;;;;;5031540;28;20060;-86
2022/09/18 04:27:51;;;;;;;9.32;1.13;;;10.60;99.90;;;;;;5048282;28;20045;-85
2022/09/18 04:30:17;;;;;;;7.43;1.10;;;10.60;99.90;;;;;;5016288;28;20454;-85
2022/09/18 04:32:43;;;;;;;10.73;1.08;;;10.60;99.90;;;;;;5031490;28;20081;-85
2022/09/18 04:35:09;;;;;;;11.75;1.30;;;10.70;99.90;;;;;;5015160;28;20064;-86
2022/09/18 04:37:34;;;;;;;5.57;0.80;;;10.60;99.90;;;;;;5015792;28;20503;-85
2022/09/18 04:40:00;;;;;;;7.85;1.10;;;10.60;99.90;;;;;;5015844;28;20439;-85
2022/09/18 04:42:26;;;;;;;6.18;0.80;;;10.60;99.90;;;;;;5016585;28;20038;-85
2022/09/18 04:44:51;;;;;;;6.78;1.23;;;10.60;99.90;;;;;;5014845;28;20376;-84
2022/09/18 04:47:17;;;;;;;8.10;0.90;;;10.60;99.90;;;;;;5031456;28;20053;-85
2022/09/18 04:49:43;;;;;;;9.82;1.00;;;10.70;99.90;;;;;;5015144;28;20131;-85
2022/09/18 04:52:09;;;;;;;7.15;0.80;;;10.60;99.90;;;;;;5014592;28;20042;-85
2022/09/18 04:54:35;;;;;;;8.73;1.08;;;10.60;99.90;;;;;;5014320;28;20136;-87
2022/09/18 04:57:00;;;;;;;5.80;0.68;;;10.50;99.90;;;;;;5015843;28;20136;-85
2022/09/18 04:59:26;;;;;;;6.50;1.10;;;10.50;99.90;;;;;;5014804;28;20134;-86
2022/09/18 05:01:52;;;;;;;7.55;0.77;;;10.60;99.90;;;;;;5047838;28;20046;-86
2022/09/18 05:04:17;;;;;;;8.38;1.00;;;10.50;99.90;;;;;;5015763;28;20140;-86
2022/09/18 05:06:43;;;;;;;9.77;0.98;;;10.50;99.90;;;;;;5015465;28;20443;-85
2022/09/18 05:09:08;;;;;;;11.45;1.20;;;10.40;99.90;;;;;;5013611;28;20048;-85
2022/09/18 05:11:34;;;;;;;8.20;1.20;;;10.40;99.90;;;;;;5015223;28;20057;-84
2022/09/18 05:14:00;;;;;;;9.75;1.30;;;10.40;99.90;;;;;;4998506;28;20096;-84
2022/09/18 05:16:26;;;;;;;5.82;0.70;;;10.50;99.90;;;;;;5030887;28;20046;-86
2022/09/18 05:18:52;;;;;;;8.80;0.95;;;10.40;99.90;;;;;;4997987;28;20049;-86
2022/09/18 05:21:18;;;;;;;4.57;0.90;;;10.40;99.90;;;;;;5012999;28;20050;-86
2022/09/18 05:23:45;;;;;;;6.85;1.10;;;10.40;99.90;;;;;;4997902;28;20496;-86
2022/09/18 05:26:12;;;;;;;5.57;0.70;;;10.40;99.90;;;;;;4997810;28;20185;-87
2022/09/18 05:28:38;;;;;;;5.10;0.70;;;10.40;99.90;;;;;;5014088;28;20061;-87
2022/09/18 05:31:04;;;;;;;6.38;0.88;;;10.40;99.90;;;;;;4998187;28;20562;-85
2022/09/18 05:33:30;;;;;;;8.63;1.10;;;10.40;99.90;;;;;;5014898;28;20053;-86
2022/09/18 05:35:56;;;;;;;9.55;1.08;;;10.30;99.90;;;;;;5013984;28;20076;-86
2022/09/18 05:38:23;;;;;;;4.30;0.80;;;10.30;99.90;;;;;;5014496;28;20093;-87
2022/09/18 05:40:49;;;;;;;6.07;0.77;;;10.30;99.90;;;;;;4997741;28;20053;-86
2022/09/18 05:43:16;;;;;;;7.97;1.08;;;10.30;99.90;;;;;;5014564;28;20395;-86
2022/09/18 05:45:42;;;;;;;7.75;0.80;;;10.30;99.90;;;;;;4997640;28;20547;-87
2022/09/18 05:48:11;;;;;;;3.25;0.52;;;10.30;99.90;;;;;;5014603;28;20515;-86
2022/09/18 05:50:36;;;;;;;10.38;1.10;;;10.30;99.90;;;;;;5015082;28;20046;-85
2022/09/18 05:53:11;;;;;;;7.20;0.85;;;10.50;99.90;;;;;;5014392;28;20057;-87
2022/09/18 05:55:36;;;;;;;5.88;0.80;;;10.30;99.90;;;;;;5013945;28;20045;-87
2022/09/18 05:58:04;;;;;;;8.05;0.88;;;10.30;99.90;;;;;;5013818;28;20566;-87
2022/09/18 06:00:33;;;;;;;8.00;0.98;;;10.30;99.90;;;;;;5014571;28;20056;-87
2022/09/18 06:03:01;;;;;;;5.63;1.02;;;10.30;99.90;;;;;;5030199;28;20085;-87
2022/09/18 06:05:29;;;;;;;6.80;0.98;;;10.30;99.90;;;;;;5013409;28;20049;-87
2022/09/18 06:07:57;;;;;;;7.50;0.60;;;10.30;99.90;;;;;;5013048;28;20046;-89
2022/09/18 06:10:23;;;;;;;4.85;0.70;;;10.30;99.90;;;;;;5014210;28;20056;-87
2022/09/18 06:12:49;;;;;;;8.27;1.30;;;10.30;99.90;;;;;;5013497;28;20053;-87
2022/09/18 06:15:15;;;;;;;4.43;0.73;;;10.30;99.90;;;;;;5013371;28;20081;-87
2022/09/18 06:17:41;;;;;;;8.98;0.88;;;10.30;99.90;;;;;;5013333;28;20046;-86
2022/09/18 06:20:08;;;;;;;8.70;0.95;;;10.30;99.90;;;;;;5014194;28;20108;-88
2022/09/18 06:22:37;;;;;;;16.63;1.10;;;10.30;99.90;;;;;;5030169;28;20484;-85
2022/09/18 06:25:04;;;;;;;6.93;0.90;;;10.30;99.90;;;;;;5013577;28;20085;-85
2022/09/18 06:27:29;;;;;;;6.60;0.98;;;10.30;99.90;;;;;;5029829;28;20380;-86
2022/09/18 06:29:55;;;;;;;6.60;0.93;;;10.30;99.90;;;;;;5013269;28;20048;-86
2022/09/18 06:32:21;;;;;;;5.60;0.90;;;10.30;99.90;;;;;;5012553;28;20542;-83
2022/09/18 06:34:47;;;;;;;5.65;0.80;;;10.30;99.90;;;;;;5013113;28;20534;-85
2022/09/18 06:37:15;;;;;;;5.55;0.90;;;10.20;99.90;;;;;;5045649;28;20510;-86
2022/09/18 06:39:44;;;;;;;8.35;1.13;;;10.30;99.90;;;;;;5046301;28;20509;-86
2022/09/18 06:42:09;;;;;;;9.38;0.82;;;10.30;99.90;;;;;;5013967;28;20499;-85
2022/09/18 06:44:36;;;;;;;5.78;0.88;;;10.30;99.90;;;;;;5029082;28;20143;-86
2022/09/18 06:47:01;;;;;;;7.28;0.95;;;10.30;99.90;;;;;;5013097;28;20045;-86
2022/09/18 06:49:27;;;;;;;7.00;1.00;;;10.30;99.90;;;;;;5046658;28;20141;-86
2022/09/18 06:51:53;;;;;;;4.90;1.10;;;10.30;99.90;;;;;;5013709;28;20160;-86
2022/09/18 06:54:19;;;;;;;5.97;0.75;;;10.30;99.90;;;;;;5045600;28;20049;-86
2022/09/18 06:56:46;;;;;;;13.30;1.10;;;10.30;99.90;;;;;;5013344;28;20057;-86
2022/09/18 06:59:12;;;;;;;11.30;1.00;;;10.40;99.90;;;;;;5046618;28;20050;-85
2022/09/18 07:01:38;;;;;;;11.85;1.20;;;10.40;99.90;;;;;;5029412;28;20049;-86
2022/09/18 07:04:03;;;;;;;8.27;0.90;;;10.40;99.90;;;;;;5013654;28;20578;-86
2022/09/18 07:06:29;;;;;;;5.90;0.98;;;10.40;99.90;;;;;;5014801;28;20050;-88
2022/09/18 07:08:56;;;;;;;10.20;1.35;;;10.50;99.90;;;;;;5045192;28;20488;-86
2022/09/18 07:11:22;;;;;;;5.68;1.10;;;10.50;99.90;;;;;;5045735;28;20104;-87
2022/09/18 07:13:48;;;;;;;8.65;1.00;;;10.50;99.90;;;;;;5013730;28;20053;-86
2022/09/18 07:16:14;;;;;;;8.35;0.80;;;10.50;99.90;;;;;;4996283;28;20049;-86
2022/09/18 07:18:41;;;;;;;11.07;1.08;;;10.50;99.90;;;;;;5012343;28;20041;-87
2022/09/18 07:21:06;;;;;;;10.13;1.08;;;10.60;99.90;;;;;;5012530;28;20097;-85
2022/09/18 07:23:32;;;;;;;7.40;1.08;;;10.60;99.90;;;;;;5012646;28;20053;-86
2022/09/18 07:25:59;;;;;;;12.90;1.30;;;10.60;99.90;;;;;;5013735;28;20058;-87
2022/09/18 07:28:25;;;;;;;8.93;1.25;;;10.60;99.90;;;;;;4996346;28;20085;-87
2022/09/18 07:30:51;;;;;;;6.88;1.10;;;10.60;99.90;;;;;;5012268;28;20077;-87
2022/09/18 07:33:17;;;;;;;12.52;1.10;;;10.60;99.90;;;;;;5028531;28;20540;-86
2022/09/18 07:35:43;;;;;;;10.10;1.27;;;10.60;99.90;;;;;;5012603;28;20043;-88
2022/09/18 07:38:09;;;;;;;7.25;0.98;;;10.60;99.90;;;;;;5013148;28;20407;-89
2022/09/18 07:40:35;;;;;;;13.57;1.27;;;10.60;99.90;;;;;;5012446;28;20518;-87
2022/09/18 07:43:04;;;;;;;10.38;1.63;;;10.60;99.90;;;;;;5013707;28;20038;-87
2022/09/18 07:45:30;;;;;;;7.35;0.93;;;10.60;99.90;;;;;;5015797;28;20046;-87
2022/09/18 07:47:56;;;;;;;10.80;1.10;;;10.60;99.90;;;;;;5015834;28;20100;-87
2022/09/18 07:50:22;;;;;;;12.82;1.20;;;10.60;99.90;;;;;;5000068;28;20049;-87
2022/09/18 07:53:01;;;;;;;10.45;1.13;;;10.60;99.90;;;;;;5016491;28;20046;-89
2022/09/18 07:55:27;;;;;;;10.15;1.25;;;10.80;99.90;;;;;;5016540;28;20092;-88
2022/09/18 07:57:56;;;;;;;7.43;1.30;;;10.70;99.90;;;;;;5051450;28;20521;-87
2022/09/18 08:00:23;;;;;;;12.85;1.35;;;10.70;99.90;;;;;;5009193;28;20546;-87
2022/09/18 08:02:48;;;;;;;9.68;1.58;;;10.70;99.90;;;;;;5021639;28;20076;-87
2022/09/18 08:05:14;;;;;;;6.40;0.88;;;10.70;99.90;;;;;;5035177;28;20059;-89
2022/09/18 08:07:40;;;;;;;15.93;1.23;;;10.70;99.90;;;;;;5048692;28;20046;-86
2022/09/18 08:10:06;;;;;;;8.43;1.10;;;10.60;99.90;;;;;;5031997;28;20054;-88
2022/09/18 08:12:32;;;;;;;12.48;0.93;;;10.60;99.90;;;;;;5048780;28;20046;-86
2022/09/18 08:14:58;;;;;;;8.15;0.88;;;10.60;99.90;;;;;;5015393;28;20052;-85
2022/09/18 08:17:25;;;;;;;10.93;1.10;;;10.60;99.90;;;;;;5015995;28;20058;-87
2022/09/18 08:19:51;;;;;;;13.65;1.30;;;10.60;99.90;;;;;;5049251;28;20081;-86
2022/09/18 08:22:17;;;;;;;9.40;1.33;;;10.60;99.90;;;;;;5015469;28;20432;-86
2022/09/18 08:24:42;;;;;;;14.23;1.75;;;10.70;99.90;;;;;;5016623;28;20092;-86
2022/09/18 08:27:08;;;;;;;9.88;1.20;;;10.60;99.90;;;;;;5015511;28;20176;-86
2022/09/18 08:29:34;;;;;;;9.88;1.17;;;10.60;99.90;;;;;;5031916;28;20072;-87
2022/09/18 08:31:59;;;;;;;9.68;1.20;;;10.70;99.90;;;;;;5015400;28;20042;-86
2022/09/18 08:34:26;;;;;;;9.10;1.00;;;10.70;99.90;;;;;;4999534;28;20046;-84
2022/09/18 08:36:51;;;;;;;12.43;1.10;;;10.60;99.90;;;;;;5053768;28;20053;-85
2022/09/18 08:39:17;;;;;;;6.72;0.85;;;10.70;99.90;;;;;;5022366;28;20082;-87
2022/09/18 08:42:11;;;;;;;11.45;1.50;;;10.80;99.90;;;;;;5002426;28;20136;-87
2022/09/18 08:44:50;;;;;;;6.28;0.95;;;10.70;99.90;;;;;;5017717;28;20046;-87
2022/09/18 08:47:25;;;;;;;11.10;1.10;;;10.70;99.90;;;;;;5018009;28;20046;-86
2022/09/18 08:49:55;;;;;;;14.77;1.90;;;10.80;99.90;;;;;;5051230;28;20050;-86
2022/09/18 08:52:31;;;;;;;7.60;1.00;;;10.80;99.90;;;;;;5017589;28;20050;-86
2022/09/18 08:55:03;;;;;;;7.88;1.35;;;10.90;99.90;;;;;;5033660;28;20058;-86
2022/09/18 08:57:34;;;;;;;10.00;1.40;;;10.80;99.90;;;;;;5050364;28;20097;-86
2022/09/18 09:00:08;;;;;;;;;;;10.90;99.90;;;;;;5017300;28;20100;-86
2022/09/18 09:02:46;;;;;;;6.47;0.68;;;10.90;99.90;;;;;;5048497;28;19975;-86
2022/09/18 09:05:17;;;;;;;10.60;0.90;;;10.90;99.90;;;;;;5048578;28;20058;-86
2022/09/18 09:08:00;;;;;;;9.75;1.20;;;10.80;99.90;;;;;;5015570;28;20057;-86
2022/09/18 09:10:54;;;;;;;4.57;0.90;;;10.80;99.90;;;;;;5047411;28;20484;-85
2022/09/18 09:13:28;;;;;;;9.68;0.80;;;10.80;99.90;;;;;;5015267;28;20050;-86
2022/09/18 09:16:26;;;;;;;7.13;1.65;;;10.70;99.90;;;;;;5014441;28;20050;-85
2022/09/18 09:19:17;;;;;;;14.10;4.80;;;10.70;99.90;;;;;;5024658;28;20058;-85
2022/09/18 09:22:12;;;;;;;4.93;1.00;;;10.70;99.90;;;;;;5015195;28;20129;-85
2022/09/18 09:24:53;;;;;;;6.55;1.80;;;10.70;99.90;;;;;;5031275;28;20296;-84
2022/09/18 09:27:25;;;;;;;7.53;2.85;;;10.70;99.90;;;;;;5014535;28;20042;-85
2022/09/18 09:30:04;;;;;;;11.18;2.97;;;10.70;99.90;;;;;;5014118;28;20423;-87
2022/09/18 09:32:36;;;;;;;8.48;1.80;;;10.80;99.90;;;;;;5015270;28;20400;-84
2022/09/18 09:35:13;;;;;;;5.45;0.82;;;10.70;99.90;;;;;;4998088;28;20084;-83
2022/09/18 09:37:42;;;;;;;2.85;0.77;;;10.70;99.90;;;;;;5030336;28;20050;-84
2022/09/18 09:40:20;;;;;;;7.68;1.20;;;10.60;99.90;;;;;;5030644;28;20111;-86
2022/09/18 09:42:54;;;;;;;10.48;1.17;;;10.70;99.90;;;;;;5047418;28;20077;-86
2022/09/18 09:45:29;;;;;;;4.68;1.00;;;10.70;99.90;;;;;;5015283;28;20084;-85
2022/09/18 09:48:13;;;;;;;5.20;1.08;;;10.70;99.90;;;;;;5015482;28;20065;-85
2022/09/18 09:50:55;;;;;;;7.38;1.88;;;10.70;99.90;;;;;;5015144;28;20419;-86
2022/09/18 09:53:24;;;;;;;6.22;1.80;;;10.70;99.90;;;;;;5015631;28;20395;-85
2022/09/18 09:56:07;;;;;;;13.43;1.48;;;10.70;99.90;;;;;;5030584;28;20045;-85
2022/09/18 09:58:39;;;;;;;5.00;1.00;;;10.70;99.90;;;;;;5015021;28;20377;-85
2022/09/18 10:01:07;;;;;;;5.53;0.88;;;10.70;99.90;;;;;;5014614;28;20056;-86
2022/09/18 10:03:53;;;;;;;10.57;1.58;;;10.80;99.90;;;;;;5013933;28;20068;-86
2022/09/18 10:06:40;;;;;;;10.10;1.52;;;10.80;99.90;;;;;;4996896;28;20439;-85
2022/09/18 10:09:35;;;;;;;7.13;1.20;;;10.90;99.90;;;;;;4996757;28;20049;-86
2022/09/18 10:12:32;;;;;;;7.05;0.85;;;10.90;99.90;;;;;;5021451;28;20050;-86
2022/09/18 10:15:17;;;;;;;8.55;1.10;;;10.90;99.90;;;;;;5029990;28;20054;-86
2022/09/18 10:17:46;;;;;;;9.80;1.20;;;11.00;99.90;;;;;;5013385;28;20132;-85
2022/09/18 10:20:20;;;;;;;8.13;1.10;;;10.90;99.90;;;;;;5013241;28;20054;-86
2022/09/18 10:22:46;;;;;;;5.95;1.00;;;11.00;99.90;;;;;;5013323;28;20573;-85
2022/09/18 10:25:15;;;;;;;9.27;0.80;;;11.00;99.90;;;;;;5014409;28;20044;-86
2022/09/18 10:27:41;;;;;;;9.75;1.58;;;11.00;99.90;;;;;;5013462;28;20514;-86
2022/09/18 10:30:11;;;;;;;9.93;1.70;;;11.00;99.90;;;;;;5014293;28;20052;-86
2022/09/18 10:32:42;;;;;;;8.77;1.15;;;11.00;99.90;;;;;;4996436;28;20050;-86
2022/09/18 10:35:41;;;;;;;9.70;1.02;;;11.00;99.90;;;;;;5014792;28;20045;-86
2022/09/18 10:38:29;;;;;;;6.72;1.27;;;11.00;99.90;;;;;;5035855;28;20451;-85
2022/09/18 10:40:55;;;;;;;8.07;1.23;;;11.00;99.90;;;;;;5045813;28;20056;-86
2022/09/18 10:43:20;;;;;;;6.95;0.95;;;11.00;99.90;;;;;;4996595;28;20132;-86
2022/09/18 10:45:53;;;;;;;9.60;1.23;;;11.00;99.90;;;;;;5046230;28;20141;-86
2022/09/18 10:48:25;;;;;;;6.30;1.10;;;11.00;99.90;;;;;;5013952;28;20045;-84
2022/09/18 10:50:58;;;;;;;9.70;1.40;;;11.00;99.90;;;;;;5012683;28;20054;-85
2022/09/18 10:53:30;;;;;;;5.97;1.25;;;11.00;99.90;;;;;;5013422;28;20038;-88
2022/09/18 10:56:05;;;;;;;7.55;1.02;;;11.00;99.90;;;;;;5013206;28;20100;-88
2022/09/18 10:58:32;;;;;;;9.45;1.50;;;11.00;99.90;;;;;;5029415;28;20455;-87
2022/09/18 11:01:06;;;;;;;8.25;1.20;;;11.10;99.90;;;;;;5013107;28;20144;-87
2022/09/18 11:03:44;;;;;;;9.25;1.02;;;11.00;99.90;;;;;;5045731;28;20403;-87
2022/09/18 11:06:23;;;;;;;9.00;1.10;;;11.10;99.90;;;;;;5029720;28;20054;-88
2022/09/18 11:08:51;;;;;;;6.15;1.08;;;11.10;99.90;;;;;;5045625;28;20046;-85
2022/09/18 11:11:33;;;;;;;8.10;1.30;;;11.10;99.90;;;;;;5028842;28;20061;-87
2022/09/18 11:14:02;;;;;;;6.63;1.10;;;11.00;99.90;;;;;;5045792;28;20053;-85
2022/09/18 11:16:36;;;;;;;11.05;1.25;;;11.10;99.90;;;;;;5012691;28;20069;-85
2022/09/18 11:19:14;;;;;;;8.10;1.42;;;11.10;99.90;;;;;;5014047;28;20061;-87
2022/09/18 11:21:49;;;;;;;8.27;1.13;;;11.20;99.90;;;;;;5017753;28;20546;-86
2022/09/18 11:24:24;;;;;;;11.23;1.02;;;11.10;99.90;;;;;;5049987;28;20132;-87
2022/09/18 11:26:56;;;;;;;8.50;1.00;;;11.20;99.90;;;;;;5033064;28;20096;-87
2022/09/18 11:29:38;;;;;;;7.75;1.05;;;11.20;99.90;;;;;;5016662;28;20089;-89
2022/09/18 11:32:04;;;;;;;8.50;0.90;;;11.20;99.90;;;;;;5017698;28;20081;-88
2022/09/18 11:34:38;;;;;;;8.88;1.17;;;11.20;99.90;;;;;;5016868;28;20132;-88
2022/09/18 11:37:10;;;;;;;9.25;0.93;;;11.30;99.90;;;;;;5017374;28;20056;-87
2022/09/18 11:39:41;;;;;;;3.05;0.75;;;11.30;99.90;;;;;;5049360;28;20057;-89
2022/09/18 11:42:09;;;;;;;;;;;11.40;99.90;;;;;;5050010;28;20630;-88
2022/09/18 11:44:36;;;;;;;11.55;1.27;;;11.30;99.90;;;;;;5000113;28;19921;-87
2022/09/18 11:47:20;;;;;;;11.93;1.25;;;11.30;99.90;;;;;;5016200;28;20050;-87
2022/09/18 11:49:59;;;;;;;10.30;0.90;;;11.40;99.90;;;;;;5016057;28;20406;-87
2022/09/18 11:52:44;;;;;;;13.52;1.42;;;11.40;99.90;;;;;;5049427;28;20038;-87
2022/09/18 11:55:40;;;;;;;4.78;1.30;;;11.50;99.90;;;;;;5032799;28;20054;-87
2022/09/18 11:58:30;;;;;;;8.40;1.10;;;11.60;99.90;;;;;;5032502;28;20050;-87
2022/09/18 12:01:29;;;;;;;10.18;1.30;;;11.60;99.90;;;;;;5049059;28;20176;-87
2022/09/18 12:04:09;;;;;;;10.07;1.50;;;11.70;99.90;;;;;;5032584;28;20112;-87
2022/09/18 12:06:43;;;;;;;13.40;1.50;;;11.60;99.90;;;;;;5016177;28;20112;-87
2022/09/18 12:09:18;;;;;;;7.38;1.08;;;11.60;99.90;;;;;;5015657;28;20050;-87
2022/09/18 12:12:10;;;;;;;9.52;1.58;;;11.60;99.90;;;;;;5032010;28;20069;-87
2022/09/18 12:14:38;;;;;;;6.95;1.25;;;11.60;99.90;;;;;;5032361;28;20068;-88
2022/09/18 12:17:28;;;;;;;7.90;1.17;;;11.60;99.90;;;;;;5048849;28;20049;-87
2022/09/18 12:20:00;;;;;;;12.00;1.40;;;11.70;99.90;;;;;;5017401;28;20042;-87
2022/09/18 12:22:33;;;;;;;11.18;1.58;;;11.70;99.90;;;;;;5026642;28;20129;-87
2022/09/18 12:24:59;;;;;;;9.82;0.95;;;11.80;99.90;;;;;;5042939;28;20053;-87
2022/09/18 12:27:43;;;;;;;7.95;1.42;;;11.90;99.90;;;;;;5028262;28;20088;-86
2022/09/18 12:30:12;;;;;;;9.70;2.22;;;12.00;99.90;;;;;;5019100;28;20125;-86
2022/09/18 12:32:47;;;;;;;10.98;1.98;;;12.00;99.90;;;;;;5049165;28;20496;-86
2022/09/18 12:35:31;;;;;;;13.65;2.35;;;12.10;99.90;;;;;;5015534;28;20053;-86
2022/09/18 12:38:23;;;;;;;8.18;1.30;;;12.10;99.90;;;;;;5048261;28;20052;-86
2022/09/18 12:41:00;;;;;;;10.18;1.20;;;12.20;99.90;;;;;;5048299;28;20092;-86
2022/09/18 12:43:46;;;;;;;7.35;1.58;;;12.30;99.90;;;;;;5031569;28;20085;-87
2022/09/18 12:46:36;;;;;;;7.88;1.27;;;12.20;99.90;;;;;;5015447;28;20050;-87
2022/09/18 12:49:17;;;;;;;11.60;1.58;;;12.10;99.90;;;;;;5016340;28;20447;-85
2022/09/18 12:52:13;;;;;;;9.68;1.00;;;12.00;99.90;;;;;;5015042;28;20054;-90
2022/09/18 12:54:55;;;;;;;5.45;1.40;;;11.90;99.90;;;;;;5047423;28;20518;-86
2022/09/18 12:57:47;;;;;;;11.48;1.98;;;11.80;99.90;;;;;;5015506;28;20054;-85
2022/09/18 13:00:13;;;;;;;;;;;11.80;99.90;;;;;;5015276;28;20112;-85
2022/09/18 13:02:59;;;;;;;10.20;1.25;;;11.70;99.90;;;;;;5014628;28;19921;-85
2022/09/18 13:05:25;;;;;;;7.38;1.40;;;11.70;99.90;;;;;;5015845;28;20085;-84
2022/09/18 13:07:50;;;;;;;6.30;1.00;;;11.60;99.90;;;;;;5014222;28;20092;-85
2022/09/18 13:10:42;;;;;;;6.78;1.17;;;11.60;99.90;;;;;;5014499;28;20050;-89